Time;durP1;ratioP1;P1;durP2;ratioP2;P2;SDS_P1;SDS_P2;PMS_P1;PMS_P2;Temp;Humidity;BMP_temperature;BMP_pressure;BME280_temperature;BME280_humidity;BME280_pressure;Samples;Min_cycle;Max_cycle;Signal;HPM_P1;HPM_P2
2022/12/07 00:02:08;;;;;;;7.93;7.33;;;;;;;0.73;100.00;96914.34;5028954;28;20715;-69
2022/12/07 00:04:36;;;;;;;7.57;6.87;;;;;;;0.72;100.00;96912.69;4991997;28;20214;-70
2022/12/07 00:07:04;;;;;;;6.83;6.30;;;;;;;0.75;100.00;96909.00;4978704;28;20234;-70
2022/12/07 00:09:31;;;;;;;7.63;7.03;;;;;;;0.63;100.00;96918.69;5027317;28;20231;-71
2022/12/07 00:11:59;;;;;;;8.57;7.83;;;;;;;0.52;100.00;96909.97;5034143;28;20690;-69
2022/12/07 00:14:28;;;;;;;8.00;7.40;;;;;;;0.51;100.00;96904.88;4998913;28;20212;-69
2022/12/07 00:16:55;;;;;;;7.40;6.80;;;;;;;0.52;100.00;96917.78;5032659;28;20254;-69
2022/12/07 00:19:23;;;;;;;7.90;7.20;;;;;;;0.69;100.00;96907.75;5030897;28;20654;-68
2022/12/07 00:21:51;;;;;;;7.67;7.07;;;;;;;0.72;100.00;96912.69;4983804;28;20216;-71
2022/12/07 00:24:18;;;;;;;7.30;6.60;;;;;;;0.57;100.00;96910.44;5028972;28;20214;-71
2022/12/07 00:26:46;;;;;;;7.30;6.70;;;;;;;0.60;100.00;96908.53;5030942;28;20298;-71
2022/12/07 00:29:16;;;;;;;7.83;7.23;;;;;;;0.55;100.00;96901.88;5027492;28;20424;-70
2022/12/07 00:31:46;;;;;;;8.27;7.57;;;;;;;0.49;100.00;96901.59;4997612;28;20727;-71
2022/12/07 00:34:17;;;;;;;7.87;7.27;;;;;;;0.57;100.00;96902.59;5025486;28;20440;-68
2022/12/07 00:36:44;;;;;;;7.20;6.70;;;;;;;0.66;100.00;96898.38;4973246;28;20600;-70
2022/12/07 00:39:12;;;;;;;7.73;7.03;;;;;;;0.67;100.00;96905.25;5022529;28;20211;-71
2022/12/07 00:41:39;;;;;;;7.10;6.50;;;;;;;0.76;100.00;96902.81;4965620;28;20220;-70
2022/12/07 00:44:07;;;;;;;10.53;7.70;;;;;;;0.81;100.00;96911.91;5025401;28;20500;-68
2022/12/07 00:46:35;;;;;;;7.53;6.93;;;;;;;0.74;100.00;96902.97;5024871;28;20223;-69
2022/12/07 00:49:04;;;;;;;7.47;6.87;;;;;;;0.67;100.00;96907.84;5002540;28;20396;-72
2022/12/07 00:51:32;;;;;;;8.53;7.83;;;;;;;0.56;100.00;96900.94;5021813;28;20239;-71
2022/12/07 00:53:59;;;;;;;8.07;7.37;;;;;;;0.55;100.00;96899.28;4996217;28;20306;-71
2022/12/07 00:56:28;;;;;;;7.37;6.77;;;;;;;0.52;100.00;96906.53;4976526;28;20246;-70
2022/12/07 00:58:57;;;;;;;8.17;7.40;;;;;;;0.59;100.00;96899.03;5020771;28;20208;-71
2022/12/07 01:01:26;;;;;;;7.83;7.13;;;;;;;0.72;100.00;96902.28;5029781;28;20202;-71
2022/12/07 01:03:53;;;;;;;8.20;7.60;;;;;;;0.70;100.00;96901.56;4989921;28;20204;-73
2022/12/07 01:06:24;;;;;;;8.47;7.77;;;;;;;0.69;100.00;96898.13;5023777;28;20224;-69
2022/12/07 01:08:52;;;;;;;9.13;8.27;;;;;;;0.69;100.00;96897.31;5001607;28;20214;-68
2022/12/07 01:11:22;;;;;;;8.37;7.67;;;;;;;0.71;100.00;96890.19;4997829;28;20702;-68
2022/12/07 01:13:51;;;;;;;8.00;7.40;;;;;;;0.65;100.00;96886.31;5018060;28;20749;-67
2022/12/07 01:16:20;;;;;;;8.30;7.60;;;;;;;0.51;100.00;96887.44;5026018;28;20227;-68
2022/12/07 01:18:49;;;;;;;8.37;7.77;;;;;;;0.48;100.00;96882.50;5026640;28;20495;-68
2022/12/07 01:21:20;;;;;;;7.83;7.23;;;;;;;0.47;100.00;96893.06;5027491;28;20195;-69
2022/12/07 01:23:50;;;;;;;8.30;7.60;;;;;;;0.48;100.00;96889.50;5006414;28;20295;-68
2022/12/07 01:26:19;;;;;;;7.87;7.27;;;;;;;0.42;100.00;96893.44;5024676;28;20227;-72
2022/12/07 01:28:47;;;;;;;8.50;7.90;;;;;;;0.43;100.00;96889.88;4972592;28;20710;-69
2022/12/07 01:31:17;;;;;;;8.73;8.03;;;;;;;0.41;100.00;96891.78;5026950;28;20227;-71
2022/12/07 01:33:46;;;;;;;9.20;8.37;;;;;;;0.46;100.00;96894.84;5027020;28;20742;-69
2022/12/07 01:36:16;;;;;;;9.33;8.53;;;;;;;0.50;100.00;96893.63;5025958;28;20223;-71
2022/12/07 01:38:44;;;;;;;7.90;7.30;;;;;;;0.61;100.00;96891.91;5025124;28;20485;-69
2022/12/07 01:41:14;;;;;;;8.93;8.17;;;;;;;0.67;100.00;96902.66;5003022;28;20434;-70
2022/12/07 01:44:11;;;;;;;8.47;7.77;;;;;;;0.63;100.00;96898.63;4973520;28;20238;-70
2022/12/07 01:46:39;;;;;;;7.43;6.83;;;;;;;0.63;100.00;96893.44;5027154;28;20231;-70
2022/12/07 01:49:09;;;;;;;7.53;6.93;;;;;;;0.55;100.00;96890.63;5026840;28;20331;-70
2022/12/07 01:51:38;;;;;;;7.80;7.27;;;;;;;0.66;100.00;96889.75;5018604;28;20490;-69
2022/12/07 01:54:05;;;;;;;7.77;7.17;;;;;;;0.72;100.00;96887.44;5023905;28;20410;-70
2022/12/07 01:56:33;;;;;;;8.37;7.67;;;;;;;0.60;100.00;96879.84;4996797;28;20249;-71
2022/12/07 01:59:01;;;;;;;10.53;7.63;;;;;;;0.64;100.00;96883.84;4981605;28;20298;-69
2022/12/07 02:01:31;;;;;;;8.67;7.97;;;;;;;0.57;100.00;96886.13;5025910;28;20226;-70
2022/12/07 02:03:59;;;;;;;7.40;6.83;;;;;;;0.65;100.00;96882.88;5020851;28;20316;-70
2022/12/07 02:06:26;;;;;;;7.93;7.33;;;;;;;0.59;100.00;96880.78;5027408;28;20227;-67
2022/12/07 02:08:54;;;;;;;7.83;7.23;;;;;;;0.49;100.00;96881.53;5024856;28;20437;-72
2022/12/07 02:11:22;;;;;;;7.97;7.37;;;;;;;0.37;100.00;96887.78;5000055;28;20220;-72
2022/12/07 02:13:50;;;;;;;7.93;7.33;;;;;;;0.26;100.00;96886.06;4976599;28;20683;-69
2022/12/07 02:16:26;;;;;;;8.43;7.73;;;;;;;0.24;100.00;96898.38;5020973;28;20897;-70
2022/12/07 02:19:04;;;;;;;9.00;8.30;;;;;;;0.23;100.00;96891.53;5026183;28;20217;-68
2022/12/07 02:21:39;;;;;;;9.47;8.67;;;;;;;0.19;100.00;96885.75;5019769;28;20215;-70
2022/12/07 02:24:16;;;;;;;9.37;8.57;;;;;;;0.24;100.00;96894.03;5023026;28;20443;-68
2022/12/07 02:27:10;;;;;;;9.17;8.37;;;;;;;0.24;100.00;96891.41;4995127;28;20239;-69
2022/12/07 02:29:42;;;;;;;8.43;7.73;;;;;;;0.24;100.00;96891.41;4968625;28;20214;-69
2022/12/07 02:32:14;;;;;;;8.80;8.10;;;;;;;0.26;100.00;96892.13;5027807;28;20227;-71
2022/12/07 02:34:47;;;;;;;10.10;9.20;;;;;;;0.23;100.00;96892.38;5026917;28;20211;-70
2022/12/07 02:37:22;;;;;;;8.77;8.07;;;;;;;0.24;100.00;96883.59;5023542;28;20994;-70
2022/12/07 02:39:55;;;;;;;9.30;8.33;;;;;;;0.26;100.00;96893.88;5023165;28;20203;-69
2022/12/07 02:42:27;;;;;;;9.17;8.47;;;;;;;0.27;100.00;96885.94;4997732;28;20218;-71
2022/12/07 02:44:57;;;;;;;9.57;8.87;;;;;;;0.27;100.00;96877.28;4978134;28;20916;-69
2022/12/07 02:47:25;;;;;;;11.07;10.13;;;;;;;0.25;100.00;96882.66;5015801;28;20297;-71
2022/12/07 02:49:53;;;;;;;9.07;8.30;;;;;;;0.26;100.00;96880.84;4968939;28;20225;-72
2022/12/07 02:52:21;;;;;;;9.33;8.50;;;;;;;0.26;100.00;96875.63;5004902;28;20241;-69
2022/12/07 02:54:48;;;;;;;9.73;8.90;;;;;;;0.33;100.00;96881.19;5024467;28;20234;-72
2022/12/07 02:57:27;;;;;;;10.03;9.23;;;;;;;0.34;100.00;96877.63;4996987;28;20239;-70
2022/12/07 03:00:02;;;;;;;9.23;8.53;;;;;;;0.33;100.00;96873.34;5026501;28;20234;-70
2022/12/07 03:02:40;;;;;;;9.50;8.70;;;;;;;0.39;100.00;96875.44;5016678;28;20359;-71
2022/12/07 03:05:17;;;;;;;9.53;8.73;;;;;;;0.34;100.00;96878.44;4974630;28;20578;-69
2022/12/07 03:07:50;;;;;;;10.00;9.00;;;;;;;0.28;100.00;96865.91;5020202;28;20199;-71
2022/12/07 03:10:25;;;;;;;9.17;8.40;;;;;;;0.26;100.00;96871.25;5009813;28;20211;-69
2022/12/07 03:13:00;;;;;;;9.50;8.70;;;;;;;0.25;100.00;96876.59;4996347;28;20204;-72
2022/12/07 03:15:33;;;;;;;10.03;9.00;;;;;;;0.27;100.00;96870.31;5019053;28;20226;-68
2022/12/07 03:18:01;;;;;;;9.37;8.57;;;;;;;0.26;100.00;96871.25;5028707;28;20424;-69
2022/12/07 03:20:30;;;;;;;8.73;8.03;;;;;;;0.30;100.00;96871.00;4971997;28;20357;-69
2022/12/07 03:22:58;;;;;;;9.00;8.20;;;;;;;0.23;100.00;96871.53;5024576;28;20211;-69
2022/12/07 03:25:27;;;;;;;8.73;8.03;;;;;;;0.26;100.00;96865.22;5022701;28;20210;-70
2022/12/07 03:27:56;;;;;;;8.53;7.73;;;;;;;0.22;100.00;96877.69;4966410;28;20214;-70
2022/12/07 03:30:27;;;;;;;9.33;8.53;;;;;;;0.20;100.00;96874.38;5031627;28;20204;-68
2022/12/07 03:32:59;;;;;;;8.73;7.87;;;;;;;0.18;100.00;96871.03;5024964;28;20647;-71
2022/12/07 03:35:28;;;;;;;8.13;7.43;;;;;;;0.18;100.00;96868.44;4962427;28;22602;-67
2022/12/07 03:37:58;;;;;;;8.53;7.83;;;;;;;0.21;100.00;96876.03;5016274;28;20200;-70
2022/12/07 03:40:29;;;;;;;8.50;7.80;;;;;;;0.18;100.00;96870.22;5023694;28;20774;-69
2022/12/07 03:42:59;;;;;;;8.93;8.23;;;;;;;0.18;100.00;96868.44;4966506;28;20207;-71
2022/12/07 03:45:32;;;;;;;9.97;9.07;;;;;;;0.21;100.00;96867.38;5023515;28;21197;-69
2022/12/07 03:48:07;;;;;;;9.20;8.40;;;;;;;0.18;100.00;96865.03;4986295;28;21427;-69
2022/12/07 03:50:39;;;;;;;8.47;7.77;;;;;;;0.24;100.00;96870.56;5024574;28;20207;-70
2022/12/07 03:53:12;;;;;;;8.67;7.97;;;;;;;0.22;100.00;96859.44;4973203;28;20329;-69
2022/12/07 03:55:43;;;;;;;9.47;8.67;;;;;;;0.20;100.00;96866.56;5026552;28;20235;-71
2022/12/07 03:58:12;;;;;;;8.00;7.20;;;;;;;0.21;100.00;96868.22;4968102;28;20544;-71
2022/12/07 04:00:39;;;;;;;8.77;8.07;;;;;;;0.18;100.00;96863.22;5029364;28;20215;-71
2022/12/07 04:03:08;;;;;;;8.57;7.87;;;;;;;0.18;100.00;96863.22;5016276;28;20576;-72
2022/12/07 04:05:36;;;;;;;8.83;8.13;;;;;;;0.20;100.00;96858.75;4988438;28;20442;-72
2022/12/07 04:08:04;;;;;;;9.17;8.43;;;;;;;0.24;100.00;96857.53;4971911;28;20227;-71
2022/12/07 04:10:31;;;;;;;9.10;8.27;;;;;;;0.27;100.00;96862.50;4999183;28;20537;-71
2022/12/07 04:12:59;;;;;;;7.80;7.20;;;;;;;0.22;100.00;96869.03;4990621;28;20223;-67
2022/12/07 04:15:27;;;;;;;8.87;8.10;;;;;;;0.24;100.00;96857.53;4995878;28;20520;-71
2022/12/07 04:17:54;;;;;;;10.80;9.93;;;;;;;0.31;100.00;96852.63;4989982;28;20463;-73
2022/12/07 04:20:28;;;;;;;9.63;8.83;;;;;;;0.39;100.00;96855.44;5027565;28;20203;-71
2022/12/07 04:22:55;;;;;;;9.73;8.93;;;;;;;0.34;100.00;96854.16;4974543;28;20846;-72
2022/12/07 04:25:25;;;;;;;9.13;8.43;;;;;;;0.37;100.00;96856.50;5004673;28;21072;-72
2022/12/07 04:27:53;;;;;;;8.60;7.87;;;;;;;0.33;100.00;96849.91;5031330;28;20573;-72
2022/12/07 04:30:21;;;;;;;8.20;7.60;;;;;;;0.37;100.00;96848.69;4998947;28;20292;-72
2022/12/07 04:32:49;;;;;;;8.97;8.27;;;;;;;0.36;100.00;96854.84;5014999;28;20224;-71
2022/12/07 04:35:16;;;;;;;8.90;8.10;;;;;;;0.35;100.00;96840.97;5027408;28;20207;-73
2022/12/07 04:37:47;;;;;;;8.97;8.17;;;;;;;0.34;100.00;96841.13;5010099;28;20210;-72
2022/12/07 04:40:15;;;;;;;8.50;7.80;;;;;;;0.17;100.00;96843.34;5018166;28;20212;-69
2022/12/07 04:42:43;;;;;;;8.80;8.00;;;;;;;0.17;100.00;96843.34;5035995;28;20218;-71
2022/12/07 04:45:11;;;;;;;9.10;8.30;;;;;;;0.09;100.00;96836.19;5019387;28;20208;-70
2022/12/07 04:47:38;;;;;;;9.23;8.43;;;;;;;0.06;100.00;96830.38;5044779;28;20204;-70
2022/12/07 04:50:07;;;;;;;9.27;8.47;;;;;;;0.01;100.00;96828.19;5035418;28;20191;-69
2022/12/07 04:52:35;;;;;;;9.53;8.63;;;;;;;-0.21;100.00;96831.69;5033753;28;20610;-72
2022/12/07 04:55:04;;;;;;;10.00;9.10;;;;;;;-0.40;100.00;96827.97;5009891;28;20230;-71
2022/12/07 04:57:32;;;;;;;10.73;9.50;;;;;;;-0.49;100.00;96834.75;4974542;28;20246;-69
2022/12/07 04:59:59;;;;;;;10.23;9.30;;;;;;;-0.64;100.00;96829.00;5033595;28;20208;-71
2022/12/07 05:02:28;;;;;;;9.70;8.70;;;;;;;-0.77;100.00;96826.53;5017131;28;20293;-71
2022/12/07 05:04:56;;;;;;;11.55;10.60;;;;;;;-0.81;100.00;96827.72;5032261;28;20454;-71
2022/12/07 05:07:23;;;;;;;10.77;9.87;;;;;;;-0.90;100.00;96834.50;5033059;28;20734;-70
2022/12/07 05:09:51;;;;;;;10.40;9.33;;;;;;;-0.94;100.00;96825.28;5037195;28;20208;-70
2022/12/07 05:12:20;;;;;;;11.33;10.23;;;;;;;-0.98;100.00;96825.63;5005782;28;20379;-70
2022/12/07 05:14:48;;;;;;;10.00;9.10;;;;;;;-1.04;100.00;96817.38;5024850;28;20294;-69
2022/12/07 05:17:16;;;;;;;11.90;10.23;;;;;;;-1.10;100.00;96825.66;5038281;28;20203;-70
2022/12/07 05:19:44;;;;;;;11.43;10.43;;;;;;;-1.13;100.00;96830.25;4997025;28;20950;-70
2022/12/07 05:22:13;;;;;;;12.07;10.97;;;;;;;-1.17;100.00;96830.50;4998102;28;20779;-70
2022/12/07 05:24:40;;;;;;;12.40;11.30;;;;;;;-1.28;100.00;96827.91;5033612;28;20765;-72
2022/12/07 05:27:08;;;;;;;12.87;11.57;;;;;;;-1.29;100.00;96835.81;4992507;28;21005;-72
2022/12/07 05:29:37;;;;;;;11.50;10.33;;;;;;;-1.35;100.00;96830.16;5004046;28;20215;-72
2022/12/07 05:32:05;;;;;;;13.55;12.23;;;;;;;-1.39;100.00;96831.34;5028853;28;20459;-73
2022/12/07 05:34:33;;;;;;;13.23;12.03;;;;;;;-1.49;100.00;96830.38;5011917;28;20222;-71
2022/12/07 05:37:00;;;;;;;14.40;13.00;;;;;;;-1.50;100.00;96839.94;5025329;28;20224;-72
2022/12/07 05:39:28;;;;;;;13.60;12.20;;;;;;;-1.55;100.00;96838.63;5034485;28;20219;-72
2022/12/07 05:42:14;;;;;;;13.43;12.13;;;;;;;-1.59;100.00;96840.66;5010613;28;20215;-72
2022/12/07 05:44:45;;;;;;;13.47;12.13;;;;;;;-1.64;100.00;96848.78;5008562;28;20606;-73
2022/12/07 05:47:13;;;;;;;14.73;13.33;;;;;;;-1.64;100.00;96851.38;5024370;28;20238;-74
2022/12/07 05:49:40;;;;;;;13.50;12.20;;;;;;;-1.64;100.00;96855.75;4987270;28;20252;-72
2022/12/07 05:52:08;;;;;;;13.63;12.40;;;;;;;-1.68;100.00;96857.75;4996658;28;20373;-70
2022/12/07 05:54:35;;;;;;;13.93;12.57;;;;;;;-1.76;100.00;96853.13;5025056;28;20203;-69
2022/12/07 05:57:03;;;;;;;13.37;12.07;;;;;;;-1.73;100.00;96857.28;5030454;28;20742;-71
2022/12/07 05:59:30;;;;;;;14.03;12.63;;;;;;;-1.76;100.00;96865.28;4974998;28;20251;-71
2022/12/07 06:02:00;;;;;;;13.23;11.77;;;;;;;-1.75;100.00;96870.34;5032159;28;20230;-71
2022/12/07 06:04:30;;;;;;;12.53;11.27;;;;;;;-1.67;100.00;96869.78;4995664;28;21351;-70
2022/12/07 06:06:58;;;;;;;12.93;11.73;;;;;;;-1.57;100.00;96863.91;5022445;28;20219;-70
2022/12/07 06:09:27;;;;;;;13.83;12.43;;;;;;;-1.49;100.00;96870.19;5024846;28;20207;-70
2022/12/07 06:14:41;;;;;;;12.73;11.53;;;;;;;-1.37;100.00;96878.81;4979539;28;20726;-72
2022/12/07 06:17:10;;;;;;;14.33;12.90;;;;;;;-1.31;100.00;96877.53;5023715;28;20542;-71
2022/12/07 06:19:38;;;;;;;13.40;12.03;;;;;;;-1.30;100.00;96874.00;4999171;28;20857;-70
2022/12/07 06:22:07;;;;;;;15.20;13.40;;;;;;;-1.25;100.00;96871.03;5021564;28;20406;-72
2022/12/07 06:24:34;;;;;;;14.00;12.60;;;;;;;-1.19;100.00;96875.75;5021232;28;20421;-71
2022/12/07 06:27:02;;;;;;;14.03;12.60;;;;;;;-1.11;100.00;96877.78;5026557;28;20463;-71
2022/12/07 06:29:30;;;;;;;12.90;11.73;;;;;;;-1.03;100.00;96873.63;4974639;28;21994;-70
2022/12/07 06:31:58;;;;;;;13.03;11.80;;;;;;;-0.94;100.00;96876.47;5022004;28;20215;-70
2022/12/07 06:34:27;;;;;;;13.47;12.20;;;;;;;-0.93;100.00;96867.72;5021763;28;20323;-69
2022/12/07 06:36:55;;;;;;;14.73;13.23;;;;;;;-0.93;100.00;96870.31;4995758;28;20227;-70
2022/12/07 06:39:24;;;;;;;16.70;13.03;;;;;;;-0.86;100.00;96865.47;5021365;28;20531;-68
2022/12/07 06:41:53;;;;;;;14.53;13.13;;;;;;;-0.81;100.00;96866.75;5025440;28;20219;-72
2022/12/07 06:44:22;;;;;;;15.73;14.10;;;;;;;-0.76;100.00;96882.00;5023936;28;20585;-68
2022/12/07 06:46:50;;;;;;;15.57;13.60;;;;;;;-0.69;100.00;96883.19;4972794;28;20545;-71
2022/12/07 06:49:18;;;;;;;15.07;13.40;;;;;;;-0.69;100.00;96890.97;5018995;28;20207;-70
2022/12/07 06:51:48;;;;;;;14.30;12.90;;;;;;;-0.69;100.00;96887.56;4991464;28;20212;-72
2022/12/07 06:54:16;;;;;;;14.43;12.93;;;;;;;-0.77;100.00;96885.56;5017901;28;20264;-70
2022/12/07 06:56:44;;;;;;;14.73;13.23;;;;;;;-0.83;100.00;96883.44;5023106;28;20810;-70
2022/12/07 06:59:12;;;;;;;14.53;13.03;;;;;;;-0.78;100.00;96889.09;5027339;28;20622;-69
2022/12/07 07:01:39;;;;;;;13.93;12.60;;;;;;;-0.69;100.00;96880.56;4976507;28;20353;-70
2022/12/07 07:04:07;;;;;;;13.47;12.07;;;;;;;-0.65;100.00;96878.56;4971758;28;20936;-71
2022/12/07 07:06:35;;;;;;;14.33;13.00;;;;;;;-0.88;100.00;96875.97;5019476;28;20224;-72
2022/12/07 07:09:04;;;;;;;16.03;13.90;;;;;;;-0.99;100.00;96874.22;5025343;28;20242;-69
2022/12/07 07:11:32;;;;;;;15.40;13.80;;;;;;;-0.86;100.00;96881.91;5029608;28;20402;-70
2022/12/07 07:14:02;;;;;;;14.13;12.73;;;;;;;-0.76;100.00;96890.66;5019142;28;20227;-69
2022/12/07 07:16:31;;;;;;;16.63;15.02;;;;;;;-0.62;100.00;96892.16;5023152;28;20483;-70
2022/12/07 07:18:59;;;;;;;16.00;14.40;;;;;;;-0.60;100.00;96884.22;4983090;28;20402;-69
2022/12/07 07:21:28;;;;;;;15.30;13.73;;;;;;;-0.74;100.00;96878.34;5019444;28;20262;-70
2022/12/07 07:23:56;;;;;;;14.50;13.10;;;;;;;-0.64;100.00;96888.03;5007985;28;20204;-71
2022/12/07 07:26:25;;;;;;;15.87;14.27;;;;;;;-0.63;100.00;96893.09;5023060;28;20242;-72
2022/12/07 07:28:53;;;;;;;15.87;14.17;;;;;;;-0.69;100.00;96896.19;5021460;28;20212;-69
2022/12/07 07:31:21;;;;;;;16.37;14.77;;;;;;;-0.51;100.00;96893.91;5021650;28;20474;-70
2022/12/07 07:33:49;;;;;;;14.97;13.47;;;;;;;-0.67;100.00;96893.47;5011338;28;20690;-69
2022/12/07 07:36:18;;;;;;;15.90;14.20;;;;;;;-0.76;100.00;96892.41;4997231;28;20884;-70
2022/12/07 07:38:45;;;;;;;14.77;13.20;;;;;;;-0.71;100.00;96892.06;5024262;28;20580;-70
2022/12/07 07:41:13;;;;;;;14.07;12.73;;;;;;;-0.78;100.00;96891.72;5029180;28;20419;-70
2022/12/07 07:43:42;;;;;;;15.53;13.73;;;;;;;-0.68;100.00;96891.81;5028109;28;20203;-67
2022/12/07 07:46:10;;;;;;;15.67;14.17;;;;;;;-0.67;100.00;96893.47;5022686;28;20631;-71
2022/12/07 07:48:38;;;;;;;15.57;13.87;;;;;;;-0.65;100.00;96894.19;5026399;28;20234;-72
2022/12/07 07:51:06;;;;;;;15.43;13.83;;;;;;;-0.65;100.00;96892.38;4979998;28;20592;-69
2022/12/07 07:53:34;;;;;;;16.37;14.70;;;;;;;-0.63;100.00;96894.88;5024122;28;20223;-70
2022/12/07 07:56:02;;;;;;;17.47;15.67;;;;;;;-0.57;100.00;96896.16;5007886;28;20235;-69
2022/12/07 07:58:30;;;;;;;16.10;14.50;;;;;;;-0.61;100.00;96888.59;5024946;28;20200;-70
2022/12/07 08:01:04;;;;;;;18.77;16.23;;;;;;;-0.57;100.00;96888.34;5017469;28;20208;-69
2022/12/07 08:03:32;;;;;;;17.57;15.87;;;;;;;-0.44;100.00;96895.06;5026443;28;20232;-70
2022/12/07 08:05:59;;;;;;;16.43;14.77;;;;;;;-0.35;100.00;96897.91;4973332;28;20261;-70
2022/12/07 08:08:27;;;;;;;17.13;15.33;;;;;;;-0.40;100.00;96894.81;5021224;28;20204;-71
2022/12/07 08:10:55;;;;;;;18.83;17.03;;;;;;;-0.40;100.00;96906.06;5022952;28;20459;-70
2022/12/07 08:13:22;;;;;;;17.20;15.47;;;;;;;-0.31;100.00;96897.53;5024204;28;21313;-71
2022/12/07 08:15:59;;;;;;;19.08;17.30;;;;;;;-0.31;100.00;96902.72;5027177;28;20629;-70
2022/12/07 08:18:27;;;;;;;15.90;14.40;;;;;;;-0.17;100.00;96906.03;5024935;28;20705;-70
2022/12/07 08:21:00;;;;;;;18.65;16.95;;;;;;;-0.13;100.00;96898.78;4998564;28;20811;-70
2022/12/07 08:23:28;;;;;;;18.80;15.10;;;;;;;-0.10;100.00;96901.13;5018613;28;20667;-72
2022/12/07 08:26:08;;;;;;;16.03;14.43;;;;;;;0.04;100.00;96902.63;5022618;28;20686;-71
2022/12/07 08:28:36;;;;;;;19.20;17.30;;;;;;;0.12;100.00;96913.25;4997176;28;21060;-71
2022/12/07 08:31:06;;;;;;;16.40;14.80;;;;;;;0.18;100.00;96911.94;5027764;28;20207;-69
2022/12/07 08:33:34;;;;;;;17.40;15.82;;;;;;;0.03;100.00;96906.19;4998486;28;21381;-71
2022/12/07 08:36:02;;;;;;;14.83;13.43;;;;;;;-0.01;100.00;96903.81;5031221;28;20717;-70
2022/12/07 08:38:29;;;;;;;15.87;14.40;;;;;;;0.00;100.00;96907.28;4976803;28;20926;-70
2022/12/07 08:40:59;;;;;;;16.73;15.23;;;;;;;0.03;100.00;96911.38;5028483;28;20451;-72
2022/12/07 08:43:27;;;;;;;17.60;15.90;;;;;;;-0.10;100.00;96906.34;5023535;28;20997;-72
2022/12/07 08:46:07;;;;;;;16.67;14.97;;;;;;;0.06;100.00;96904.16;5029254;28;20223;-71
2022/12/07 08:48:37;;;;;;;15.30;13.80;;;;;;;0.11;100.00;96911.59;5032242;28;20226;-71
2022/12/07 08:51:05;;;;;;;17.40;15.70;;;;;;;0.12;100.00;96908.88;5024472;28;20454;-71
2022/12/07 08:53:34;;;;;;;14.70;13.30;;;;;;;0.21;100.00;96907.31;4980911;28;20343;-70
2022/12/07 08:56:02;;;;;;;17.30;15.70;;;;;;;0.25;100.00;96913.06;5030146;28;20441;-71
2022/12/07 08:58:29;;;;;;;14.73;13.30;;;;;;;0.24;100.00;96914.03;5020533;28;20221;-72
2022/12/07 09:00:57;;;;;;;15.33;13.77;;;;;;;0.11;100.00;96903.78;5026457;28;20234;-71
2022/12/07 09:03:26;;;;;;;15.13;13.53;;;;;;;0.13;100.00;96909.69;5030224;28;20222;-70
2022/12/07 09:05:54;;;;;;;14.88;13.38;;;;;;;0.35;100.00;96913.16;5025355;28;20454;-71
2022/12/07 09:08:24;;;;;;;17.45;15.85;;;;;;;0.45;100.00;96910.63;4980897;28;20843;-72
2022/12/07 09:10:52;;;;;;;18.35;16.65;;;;;;;0.45;100.00;96908.81;5021863;28;20485;-73
2022/12/07 09:13:20;;;;;;;17.90;16.40;;;;;;;0.61;100.00;96908.38;4976383;28;20950;-71
2022/12/07 09:15:48;;;;;;;16.63;15.03;;;;;;;0.60;100.00;96898.91;5023517;28;20233;-69
2022/12/07 09:18:15;;;;;;;15.68;14.18;;;;;;;0.74;100.00;96900.34;5022100;28;20801;-71
2022/12/07 09:20:44;;;;;;;13.07;11.80;;;;;;;0.77;100.00;96904.50;5033032;28;20204;-71
2022/12/07 09:23:12;;;;;;;14.03;12.73;;;;;;;0.64;100.00;96902.09;5019143;28;20200;-72
2022/12/07 09:25:40;;;;;;;15.18;13.77;;;;;;;0.67;100.00;96899.22;5024552;28;21032;-70
2022/12/07 09:28:07;;;;;;;14.67;13.30;;;;;;;0.59;100.00;96896.44;4972984;28;20208;-70
2022/12/07 09:30:35;;;;;;;16.05;14.65;;;;;;;0.52;100.00;96894.31;5022255;28;20750;-72
2022/12/07 09:33:23;;;;;;;17.85;16.08;;;;;;;0.57;100.00;96892.19;4996598;28;20471;-71
2022/12/07 09:35:52;;;;;;;15.40;13.80;;;;;;;0.56;100.00;96892.28;5031307;28;20234;-71
2022/12/07 09:38:20;;;;;;;14.07;12.53;;;;;;;0.59;100.00;96881.59;5020239;28;20290;-69
2022/12/07 09:40:48;;;;;;;15.50;13.97;;;;;;;0.61;100.00;96890.13;5024693;28;20215;-71
2022/12/07 09:43:18;;;;;;;13.80;12.53;;;;;;;0.83;100.00;96889.13;4978411;28;20645;-71
2022/12/07 09:45:48;;;;;;;12.93;11.53;;;;;;;0.92;100.00;96894.53;5029801;28;20230;-69
2022/12/07 09:48:19;;;;;;;13.83;12.53;;;;;;;1.09;100.00;96887.88;5035367;28;20214;-70
2022/12/07 09:50:48;;;;;;;11.70;10.60;;;;;;;1.17;100.00;96882.84;5025085;28;20215;-70
2022/12/07 09:53:21;;;;;;;11.60;10.50;;;;;;;1.15;100.00;96882.16;5022373;28;20215;-71
2022/12/07 09:55:49;;;;;;;10.13;9.23;;;;;;;1.23;100.00;96878.84;5027949;28;20231;-70
2022/12/07 09:58:20;;;;;;;11.30;10.17;;;;;;;1.31;100.00;96873.78;5024809;28;20377;-70
2022/12/07 10:00:49;;;;;;;10.27;9.27;;;;;;;1.26;100.00;96871.59;4975171;28;20594;-69
2022/12/07 10:03:16;;;;;;;10.27;9.37;;;;;;;1.29;100.00;96875.72;5027644;28;20315;-71
2022/12/07 10:05:46;;;;;;;12.88;11.68;;;;;;;1.37;100.00;96868.06;5001891;28;20424;-70
2022/12/07 10:08:15;;;;;;;11.32;10.30;;;;;;;1.49;100.00;96870.56;5020021;28;20454;-69
2022/12/07 10:10:46;;;;;;;11.80;10.70;;;;;;;1.39;100.00;96866.13;5022353;28;20298;-71
2022/12/07 10:13:15;;;;;;;11.67;10.47;;;;;;;1.38;100.00;96868.88;5020495;28;20199;-70
2022/12/07 10:15:46;;;;;;;10.57;9.47;;;;;;;1.39;100.00;96854.84;4979780;28;20238;-71
2022/12/07 10:18:26;;;;;;;10.67;9.57;;;;;;;1.42;100.00;96854.59;5019215;28;20204;-71
2022/12/07 10:21:07;;;;;;;10.50;9.60;;;;;;;1.56;100.00;96848.16;5025074;28;20697;-70
2022/12/07 10:23:35;;;;;;;10.37;9.37;;;;;;;1.61;100.00;96855.59;5023596;28;20201;-71
2022/12/07 10:26:27;;;;;;;10.33;9.43;;;;;;;1.71;100.00;96853.81;5025452;28;20219;-70
2022/12/07 10:28:55;;;;;;;9.47;8.57;;;;;;;1.59;100.00;96846.13;5028061;28;20204;-69
2022/12/07 10:31:24;;;;;;;9.70;8.70;;;;;;;1.57;100.00;96834.97;4980340;28;20234;-72
2022/12/07 10:33:53;;;;;;;9.73;8.73;;;;;;;1.61;100.00;96827.69;5023968;28;20221;-69
2022/12/07 10:36:24;;;;;;;11.03;9.97;;;;;;;1.55;100.00;96823.00;5023822;28;20249;-71
2022/12/07 10:38:54;;;;;;;8.47;7.53;;;;;;;1.47;100.00;96823.66;5026434;28;20218;-69
2022/12/07 10:41:23;;;;;;;9.23;8.43;;;;;;;1.49;100.00;96828.78;5027529;28;20211;-69
2022/12/07 10:43:53;;;;;;;9.73;8.73;;;;;;;1.50;100.00;96828.63;5020418;28;20625;-69
2022/12/07 10:46:45;;;;;;;8.97;8.07;;;;;;;1.55;100.00;96813.41;4982015;28;20397;-70
2022/12/07 10:49:31;;;;;;;9.67;8.77;;;;;;;1.61;100.00;96809.41;5022096;28;20196;-70
2022/12/07 10:52:01;;;;;;;9.53;8.53;;;;;;;1.64;100.00;96814.34;5021035;28;20199;-69
2022/12/07 10:54:40;;;;;;;9.53;8.63;;;;;;;1.65;100.00;96809.97;5024310;28;20203;-71
2022/12/07 10:57:19;;;;;;;8.97;8.10;;;;;;;1.73;100.00;96815.31;5020622;28;20333;-72
2022/12/07 10:59:54;;;;;;;8.73;7.83;;;;;;;1.65;100.00;96808.16;5032563;28;20215;-71
2022/12/07 11:02:41;;;;;;;8.97;8.07;;;;;;;1.69;100.00;96812.13;4975813;28;20214;-72
2022/12/07 11:05:17;;;;;;;9.00;8.10;;;;;;;1.85;100.00;96808.16;5022748;28;20960;-72
2022/12/07 11:07:50;;;;;;;8.33;7.63;;;;;;;1.76;100.00;96801.16;5023110;28;20214;-71
2022/12/07 11:10:27;;;;;;;11.00;10.00;;;;;;;1.72;100.00;96801.44;5025278;28;20717;-72
2022/12/07 11:13:10;;;;;;;10.50;8.13;;;;;;;1.71;100.00;96802.41;5024052;28;20195;-71
2022/12/07 11:15:49;;;;;;;10.43;9.45;;;;;;;1.75;100.00;96796.91;5022791;28;20466;-72
2022/12/07 11:18:23;;;;;;;8.77;7.97;;;;;;;1.79;100.00;96800.91;4976109;28;20705;-70
2022/12/07 11:20:53;;;;;;;9.03;8.13;;;;;;;1.68;100.00;96792.22;4970745;28;20211;-71
2022/12/07 11:23:28;;;;;;;8.93;8.00;;;;;;;1.74;100.00;96790.84;5022984;28;20214;-69
2022/12/07 11:26:03;;;;;;;9.23;7.50;;;;;;;1.78;100.00;96789.59;4998726;28;20515;-70
2022/12/07 11:28:47;;;;;;;8.43;7.63;;;;;;;1.75;100.00;96789.88;5020424;28;20222;-69
2022/12/07 11:31:20;;;;;;;8.80;7.97;;;;;;;1.76;100.00;96788.91;5021028;28;20699;-70
2022/12/07 11:34:00;;;;;;;8.80;7.63;;;;;;;1.78;100.00;96783.56;5012013;28;20291;-70
2022/12/07 11:36:37;;;;;;;9.00;8.10;;;;;;;1.77;100.00;96797.59;4979925;28;20224;-70
2022/12/07 11:39:13;;;;;;;8.87;8.03;;;;;;;1.70;100.00;96785.06;5026158;28;20345;-71
2022/12/07 11:41:42;;;;;;;10.40;9.40;;;;;;;1.64;100.00;96788.22;5022170;28;20305;-70